Time;durP1;ratioP1;P1;durP2;ratioP2;P2;SDS_P1;SDS_P2;PMS_P1;PMS_P2;Temp;Humidity;BMP_temperature;BMP_pressure;BME280_temperature;BME280_humidity;BME280_pressure;Samples;Min_cycle;Max_cycle;Signal;HPM_P1;HPM_P2
2022/10/08 00:01:55;;;;;;;11.80;10.80;;;16.80;99.90;;;;;;10426292;28;20663;-83
2022/10/08 00:06:57;;;;;;;14.07;12.70;;;16.70;99.90;;;;;;10425469;28;20272;-82
2022/10/08 00:12:00;;;;;;;13.77;12.47;;;16.70;99.90;;;;;;10474052;28;20265;-80
2022/10/08 00:17:02;;;;;;;14.37;12.73;;;16.60;99.90;;;;;;10457410;28;20197;-81
2022/10/08 00:22:04;;;;;;;13.37;12.27;;;16.50;99.90;;;;;;10472828;28;20687;-82
2022/10/08 00:27:07;;;;;;;13.77;12.40;;;16.50;99.90;;;;;;10491063;28;20193;-82
2022/10/08 00:32:10;;;;;;;12.37;11.37;;;16.50;99.90;;;;;;10478810;28;20223;-83
2022/10/08 00:37:12;;;;;;;12.90;11.80;;;16.40;99.90;;;;;;10489827;28;20205;-82
2022/10/08 00:42:16;;;;;;;13.37;11.97;;;16.40;99.90;;;;;;10450347;28;20256;-80
2022/10/08 00:47:24;;;;;;;13.23;11.97;;;16.30;99.90;;;;;;10447409;28;20189;-82
2022/10/08 00:52:32;;;;;;;12.63;11.53;;;16.30;99.90;;;;;;10461443;28;20221;-80
2022/10/08 00:57:37;;;;;;;12.87;10.70;;;16.20;99.90;;;;;;10473292;28;20173;-79
2022/10/08 01:02:39;;;;;;;13.07;11.93;;;16.10;99.90;;;;;;10475869;28;20316;-83
2022/10/08 01:07:47;;;;;;;11.13;10.10;;;16.10;99.90;;;;;;10455979;28;20213;-82
2022/10/08 01:13:04;;;;;;;11.73;10.60;;;16.00;99.90;;;;;;10464512;28;20210;-81
2022/10/08 01:18:13;;;;;;;12.80;11.60;;;16.00;99.90;;;;;;10453221;28;20286;-81
2022/10/08 01:23:29;;;;;;;11.60;10.47;;;15.90;99.90;;;;;;10488408;28;20213;-81
2022/10/08 01:28:36;;;;;;;11.70;10.77;;;15.90;99.90;;;;;;10470277;28;20284;-80
2022/10/08 01:33:45;;;;;;;13.10;11.90;;;15.90;99.90;;;;;;10449270;28;20703;-81
2022/10/08 01:38:51;;;;;;;13.03;11.77;;;16.00;99.90;;;;;;10455115;28;20202;-83
2022/10/08 01:44:01;;;;;;;11.53;10.60;;;16.00;99.90;;;;;;10455644;28;20739;-83
2022/10/08 01:49:09;;;;;;;11.30;10.20;;;16.10;99.90;;;;;;10475583;28;20285;-81
2022/10/08 01:54:15;;;;;;;12.80;11.70;;;16.00;99.90;;;;;;10471664;28;20226;-82
2022/10/08 01:59:22;;;;;;;13.10;11.80;;;16.00;99.90;;;;;;10441738;28;20217;-81
2022/10/08 02:04:36;;;;;;;12.23;11.27;;;16.00;99.90;;;;;;10440729;28;20269;-82
2022/10/08 02:09:40;;;;;;;11.77;10.57;;;16.00;99.90;;;;;;10457083;28;20217;-81
2022/10/08 02:14:48;;;;;;;12.60;11.60;;;16.10;99.90;;;;;;10468454;28;20206;-82
2022/10/08 02:19:55;;;;;;;12.30;11.23;;;16.10;99.90;;;;;;10457831;28;20763;-81
2022/10/08 02:25:05;;;;;;;12.93;11.93;;;16.10;99.90;;;;;;10470511;28;20194;-82
2022/10/08 02:30:11;;;;;;;13.03;11.83;;;16.10;99.90;;;;;;10440732;28;20213;-81
2022/10/08 02:35:18;;;;;;;17.40;12.30;;;16.10;99.90;;;;;;10466006;28;20220;-80
2022/10/08 02:40:20;;;;;;;12.37;11.33;;;16.20;99.90;;;;;;10472004;28;20210;-81
2022/10/08 02:45:27;;;;;;;14.60;12.27;;;16.10;99.90;;;;;;10445229;28;20727;-81
2022/10/08 02:50:33;;;;;;;14.20;12.27;;;16.10;99.90;;;;;;10489107;28;20248;-82
2022/10/08 02:55:42;;;;;;;12.97;11.87;;;16.10;99.90;;;;;;10468868;28;20252;-80
2022/10/08 03:00:52;;;;;;;12.70;11.70;;;16.10;99.90;;;;;;10470446;28;20685;-81
2022/10/08 03:05:56;;;;;;;14.53;13.23;;;16.10;99.90;;;;;;10428211;28;20190;-84
2022/10/08 03:10:59;;;;;;;14.40;12.87;;;16.10;99.90;;;;;;10460914;28;20268;-82
2022/10/08 03:16:07;;;;;;;15.67;14.17;;;16.10;99.90;;;;;;10453171;28;20221;-83
2022/10/08 03:21:12;;;;;;;15.20;13.80;;;16.00;99.90;;;;;;10445360;28;20264;-83
2022/10/08 03:26:17;;;;;;;14.10;13.10;;;16.00;99.90;;;;;;10447579;28;20190;-82
2022/10/08 03:31:20;;;;;;;19.43;13.30;;;16.00;99.90;;;;;;10468402;28;20304;-83
2022/10/08 03:36:23;;;;;;;12.57;11.30;;;16.00;99.90;;;;;;10486859;28;20561;-82
2022/10/08 03:41:25;;;;;;;13.97;12.57;;;16.00;99.90;;;;;;10468406;28;20282;-83
2022/10/08 03:46:29;;;;;;;14.43;13.23;;;16.10;99.90;;;;;;10484153;28;20193;-82
2022/10/08 03:51:31;;;;;;;14.40;13.20;;;16.10;99.90;;;;;;10475253;28;20213;-82
2022/10/08 03:56:33;;;;;;;15.03;13.40;;;16.20;99.90;;;;;;10475641;28;20206;-83
2022/10/08 04:01:36;;;;;;;12.70;11.40;;;16.20;99.90;;;;;;10454507;28;20626;-81
2022/10/08 04:06:38;;;;;;;12.43;11.23;;;16.20;99.90;;;;;;10442454;28;20708;-82
2022/10/08 04:11:40;;;;;;;13.17;11.00;;;16.30;99.90;;;;;;10443484;28;20217;-81
2022/10/08 04:16:44;;;;;;;13.53;12.13;;;16.30;99.90;;;;;;10433096;28;20209;-82
2022/10/08 04:21:46;;;;;;;14.77;13.00;;;16.30;99.90;;;;;;10441571;28;20213;-83
2022/10/08 04:26:48;;;;;;;12.13;11.13;;;16.30;99.90;;;;;;10426065;28;20236;-82
2022/10/08 04:31:51;;;;;;;11.23;10.20;;;16.30;99.90;;;;;;10473454;28;20205;-82
2022/10/08 04:36:53;;;;;;;10.67;9.77;;;16.30;99.90;;;;;;10465913;28;20221;-83
2022/10/08 04:41:55;;;;;;;11.93;10.93;;;16.30;99.90;;;;;;10448243;28;20288;-83
2022/10/08 04:46:59;;;;;;;12.20;11.17;;;16.30;99.90;;;;;;10473149;28;20193;-81
2022/10/08 04:52:01;;;;;;;13.33;12.03;;;16.30;99.90;;;;;;10474786;28;20599;-83
2022/10/08 04:57:03;;;;;;;10.80;10.00;;;16.30;99.90;;;;;;10473681;28;21006;-81
2022/10/08 05:02:06;;;;;;;11.80;10.93;;;16.30;99.90;;;;;;10476654;28;20710;-82
2022/10/08 05:07:08;;;;;;;12.17;11.10;;;16.30;99.90;;;;;;10453290;28;20212;-81
2022/10/08 05:12:10;;;;;;;12.43;11.33;;;16.30;99.90;;;;;;10483745;28;20236;-82
2022/10/08 05:17:14;;;;;;;12.40;11.30;;;16.30;99.90;;;;;;10485673;28;20229;-81
2022/10/08 05:22:16;;;;;;;13.83;12.43;;;16.30;99.90;;;;;;10476770;28;20221;-82
2022/10/08 05:27:18;;;;;;;14.03;11.87;;;16.30;99.90;;;;;;10445981;28;20216;-82
2022/10/08 05:32:21;;;;;;;13.40;12.03;;;16.30;99.90;;;;;;10448118;28;20213;-82
2022/10/08 05:37:24;;;;;;;14.87;13.57;;;16.30;99.90;;;;;;10449593;28;20213;-82
2022/10/08 05:42:26;;;;;;;14.73;13.03;;;16.30;99.90;;;;;;10460215;28;20220;-82
2022/10/08 05:47:29;;;;;;;13.67;12.57;;;16.20;99.90;;;;;;10490478;28;20189;-81
2022/10/08 05:52:31;;;;;;;14.30;11.87;;;16.20;99.90;;;;;;10480499;28;20225;-83
2022/10/08 05:57:34;;;;;;;11.77;10.57;;;16.10;99.90;;;;;;10443551;28;20221;-82
2022/10/08 06:02:37;;;;;;;13.83;12.40;;;16.10;99.90;;;;;;10464626;22;20256;-81
2022/10/08 06:07:39;;;;;;;12.77;11.73;;;16.00;99.90;;;;;;10458163;28;20254;-81
2022/10/08 06:12:41;;;;;;;12.60;11.47;;;16.00;99.90;;;;;;10409207;28;20217;-81
2022/10/08 06:17:44;;;;;;;14.07;12.83;;;16.00;99.90;;;;;;10426207;28;20209;-81
2022/10/08 06:22:46;;;;;;;45.67;28.50;;;15.90;99.90;;;;;;10429589;28;20214;-80
2022/10/08 06:27:48;;;;;;;18.57;15.10;;;15.90;99.90;;;;;;10431611;28;20201;-81
2022/10/08 06:32:52;;;;;;;18.10;12.63;;;15.90;99.90;;;;;;10430732;28;20206;-81
2022/10/08 06:37:54;;;;;;;43.63;30.97;;;15.90;99.90;;;;;;10433162;28;20222;-80
2022/10/08 06:42:56;;;;;;;14.93;13.43;;;15.90;99.90;;;;;;10431917;28;20214;-80
2022/10/08 06:47:59;;;;;;;16.60;15.10;;;15.90;99.90;;;;;;10426274;28;20246;-81
2022/10/08 06:53:01;;;;;;;17.23;13.40;;;15.90;99.90;;;;;;10408100;28;20202;-81
2022/10/08 06:58:05;;;;;;;13.33;11.90;;;15.90;99.90;;;;;;10429283;28;20220;-81
2022/10/08 07:03:09;;;;;;;15.07;13.57;;;15.90;99.90;;;;;;10405422;28;20229;-81
2022/10/08 07:08:14;;;;;;;17.37;14.83;;;15.90;99.90;;;;;;10401836;28;20186;-80
2022/10/08 07:13:16;;;;;;;11.97;10.87;;;15.90;99.90;;;;;;10364941;28;20639;-81
2022/10/08 07:18:19;;;;;;;12.20;10.93;;;16.00;99.90;;;;;;10361850;28;20211;-80
2022/10/08 07:23:21;;;;;;;11.60;10.53;;;16.00;99.90;;;;;;10391008;28;20215;-80
2022/10/08 07:28:24;;;;;;;10.67;9.80;;;16.00;99.90;;;;;;10344183;28;20191;-80
2022/10/08 07:33:28;;;;;;;13.40;9.40;;;16.10;99.90;;;;;;10361317;28;20246;-80
2022/10/08 07:38:31;;;;;;;13.47;8.53;;;16.20;99.90;;;;;;10369369;28;20242;-80
2022/10/08 07:43:33;;;;;;;9.40;8.47;;;16.30;99.90;;;;;;10405333;28;20212;-80
2022/10/08 07:48:36;;;;;;;10.90;6.53;;;16.40;99.90;;;;;;10348794;28;20640;-80
2022/10/08 07:53:39;;;;;;;10.00;8.03;;;16.50;99.90;;;;;;10351928;28;20218;-80
2022/10/08 07:58:46;;;;;;;7.27;6.57;;;16.60;99.90;;;;;;10338592;28;20242;-81
2022/10/08 08:03:54;;;;;;;6.73;5.90;;;16.70;99.90;;;;;;10385740;28;20317;-80
2022/10/08 08:08:56;;;;;;;9.20;5.93;;;16.90;99.90;;;;;;10353219;28;20254;-81
2022/10/08 08:13:58;;;;;;;7.13;6.47;;;17.10;99.90;;;;;;10354577;28;20246;-81
2022/10/08 08:19:02;;;;;;;12.90;6.57;;;17.30;99.90;;;;;;10352468;28;20630;-81
2022/10/08 08:24:06;;;;;;;6.20;5.53;;;17.40;99.90;;;;;;10349012;28;20210;-81
2022/10/08 08:29:11;;;;;;;7.47;6.00;;;17.50;99.90;;;;;;10350699;28;20226;-81
2022/10/08 08:34:19;;;;;;;8.30;5.20;;;17.50;99.90;;;;;;10353901;28;20215;-81
2022/10/08 08:39:23;;;;;;;9.40;5.10;;;17.50;99.90;;;;;;10359922;28;20238;-81
2022/10/08 08:44:30;;;;;;;6.80;5.27;;;17.40;99.90;;;;;;10360757;28;20213;-80
2022/10/08 08:49:39;;;;;;;8.63;4.90;;;17.30;99.90;;;;;;10362128;28;20193;-81
2022/10/08 08:54:41;;;;;;;7.13;5.27;;;17.30;99.90;;;;;;10367207;28;20313;-81
2022/10/08 08:59:47;;;;;;;5.80;3.57;;;17.30;99.90;;;;;;10364519;28;20195;-81
2022/10/08 09:04:55;;;;;;;7.97;4.63;;;17.40;99.90;;;;;;10366379;28;20701;-81
2022/10/08 09:09:59;;;;;;;7.40;4.60;;;17.50;99.90;;;;;;10368861;28;20193;-81
2022/10/08 09:15:02;;;;;;;7.20;4.27;;;17.50;99.90;;;;;;10383246;28;20237;-80
2022/10/08 09:20:07;;;;;;;5.90;4.20;;;17.50;99.90;;;;;;10366474;28;20199;-80
2022/10/08 09:25:14;;;;;;;5.17;3.90;;;17.50;99.90;;;;;;10368695;28;20306;-81
2022/10/08 09:30:33;;;;;;;7.97;4.50;;;17.50;99.90;;;;;;10370196;28;20205;-81
2022/10/08 09:35:43;;;;;;;6.57;3.40;;;17.50;99.90;;;;;;10366171;28;20207;-80
2022/10/08 09:40:59;;;;;;;10.50;4.50;;;17.60;99.90;;;;;;10365249;28;20573;-81
2022/10/08 09:46:10;;;;;;;5.00;3.73;;;17.70;99.90;;;;;;10359930;28;20213;-80
2022/10/08 09:51:16;;;;;;;5.50;3.70;;;17.90;99.90;;;;;;10368252;28;20253;-81
2022/10/08 09:56:26;;;;;;;5.63;3.90;;;18.00;99.90;;;;;;10395438;28;20267;-80
2022/10/08 10:01:30;;;;;;;5.70;3.90;;;17.90;99.90;;;;;;10382573;28;20284;-80
2022/10/08 10:06:36;;;;;;;6.57;4.50;;;17.90;99.90;;;;;;10391453;28;20273;-80
2022/10/08 10:11:41;;;;;;;4.43;3.53;;;17.80;99.90;;;;;;10387294;28;20218;-80
2022/10/08 10:16:46;;;;;;;5.87;3.63;;;17.80;99.90;;;;;;10390737;28;20686;-80
2022/10/08 10:21:58;;;;;;;4.43;3.93;;;17.80;99.90;;;;;;10384572;28;20221;-80
2022/10/08 10:27:06;;;;;;;6.00;4.27;;;18.00;99.90;;;;;;10378081;28;20578;-80
2022/10/08 10:32:13;;;;;;;7.30;4.00;;;18.10;99.90;;;;;;10384565;28;20229;-80
2022/10/08 10:37:24;;;;;;;4.83;4.00;;;18.10;99.90;;;;;;10377347;28;20225;-80
2022/10/08 10:42:34;;;;;;;7.20;3.93;;;18.10;99.30;;;;;;10381133;28;20280;-80
2022/10/08 10:47:36;;;;;;;6.83;4.60;;;18.10;99.70;;;;;;10400800;28;20194;-80
2022/10/08 10:53:00;;;;;;;8.13;4.70;;;18.10;99.90;;;;;;10386223;28;20245;-79
2022/10/08 10:58:24;;;;;;;5.50;4.10;;;18.10;99.70;;;;;;10385295;28;20304;-79
2022/10/08 11:03:38;;;;;;;7.23;3.33;;;18.20;99.80;;;;;;10363296;28;20709;-81
2022/10/08 11:08:47;;;;;;;8.00;3.83;;;18.20;98.90;;;;;;10387217;28;20209;-80
2022/10/08 11:14:05;;;;;;;12.43;4.97;;;18.20;98.30;;;;;;10378194;28;20636;-79
2022/10/08 11:19:19;;;;;;;5.70;4.03;;;18.00;98.70;;;;;;10385751;28;20221;-79
2022/10/08 11:24:44;;;;;;;5.33;4.00;;;17.90;99.10;;;;;;10373930;28;20218;-79
2022/10/08 11:29:54;;;;;;;6.27;4.50;;;17.70;99.90;;;;;;10386461;28;20285;-80
2022/10/08 11:35:12;;;;;;;4.93;3.70;;;17.70;98.90;;;;;;10375984;28;20308;-80
2022/10/08 11:40:25;;;;;;;5.93;3.33;;;17.70;98.90;;;;;;10383692;28;20191;-80
2022/10/08 11:45:36;;;;;;;5.10;3.40;;;17.60;97.90;;;;;;10399866;28;20689;-80
2022/10/08 11:50:39;;;;;;;7.00;3.00;;;17.60;98.20;;;;;;10391108;28;20233;-80
2022/10/08 11:55:52;;;;;;;6.63;3.73;;;17.60;97.10;;;;;;10388868;28;20215;-80
2022/10/08 12:01:02;;;;;;;4.20;3.60;;;17.60;96.40;;;;;;10377520;28;20238;-79
2022/10/08 12:06:17;;;;;;;5.97;3.60;;;17.50;98.80;;;;;;10383881;28;20191;-79
2022/10/08 12:11:50;;;;;;;5.93;4.10;;;17.60;96.30;;;;;;10377192;28;20227;-80
2022/10/08 12:17:13;;;;;;;5.80;3.50;;;17.50;97.60;;;;;;10386966;28;20686;-80
2022/10/08 12:22:41;;;;;;;6.17;3.50;;;17.50;97.30;;;;;;10390194;28;20226;-80
2022/10/08 12:27:45;;;;;;;3.90;3.23;;;17.60;98.50;;;;;;10336290;28;20241;-80
2022/10/08 12:32:55;;;;;;;7.00;3.50;;;17.60;98.10;;;;;;10349488;28;20652;-81
2022/10/08 12:38:22;;;;;;;3.40;3.10;;;17.70;96.50;;;;;;10372025;28;20211;-80
2022/10/08 12:43:33;;;;;;;4.70;3.17;;;17.70;98.20;;;;;;10330447;28;20218;-80
2022/10/08 12:48:43;;;;;;;3.70;3.23;;;17.70;97.30;;;;;;10330851;28;20202;-80
2022/10/08 12:53:46;;;;;;;4.30;3.10;;;17.60;97.10;;;;;;10328981;28;20770;-79
2022/10/08 12:58:50;;;;;;;4.77;3.40;;;17.60;97.20;;;;;;10329004;28;20601;-80
2022/10/08 13:04:09;;;;;;;5.23;3.70;;;17.60;98.10;;;;;;10328610;28;20707;-80
2022/10/08 13:09:25;;;;;;;5.90;2.50;;;17.60;97.20;;;;;;10332697;28;20220;-80
2022/10/08 13:14:31;;;;;;;4.40;3.17;;;17.60;96.70;;;;;;10410914;28;20271;-80
2022/10/08 13:19:35;;;;;;;8.30;3.20;;;17.60;96.30;;;;;;10416183;28;20198;-80
2022/10/08 13:24:39;;;;;;;4.60;3.17;;;17.50;96.20;;;;;;10420312;28;20740;-80
2022/10/08 13:29:43;;;;;;;3.70;2.57;;;17.50;95.90;;;;;;10419551;28;20257;-80
2022/10/08 13:34:47;;;;;;;7.03;2.90;;;17.50;95.90;;;;;;10418808;28;20233;-81
2022/10/08 13:39:52;;;;;;;3.60;2.90;;;17.40;97.30;;;;;;10419124;28;20260;-80
2022/10/08 13:44:58;;;;;;;4.17;2.63;;;17.40;96.50;;;;;;10418676;28;20301;-80
2022/10/08 13:50:00;;;;;;;2.40;2.20;;;17.40;96.10;;;;;;10420441;28;20192;-80
2022/10/08 13:55:06;;;;;;;7.27;2.73;;;17.50;95.70;;;;;;10422110;28;20206;-80
2022/10/08 14:00:13;;;;;;;3.13;2.00;;;17.60;96.20;;;;;;10420381;28;20666;-80
2022/10/08 14:05:15;;;;;;;3.10;2.80;;;17.80;96.10;;;;;;10421139;28;20568;-80
2022/10/08 14:10:18;;;;;;;4.20;3.30;;;18.00;97.40;;;;;;10404152;28;20252;-80
2022/10/08 14:15:21;;;;;;;3.13;2.90;;;18.20;96.30;;;;;;10420068;28;20186;-80
2022/10/08 14:20:24;;;;;;;5.57;3.00;;;18.40;96.20;;;;;;10421549;28;20205;-81
2022/10/08 14:25:29;;;;;;;2.80;2.47;;;18.40;96.80;;;;;;10421604;28;20662;-80
2022/10/08 14:30:32;;;;;;;4.67;2.67;;;18.40;96.20;;;;;;10420727;28;20198;-80
2022/10/08 14:35:34;;;;;;;5.63;2.97;;;18.30;96.30;;;;;;10421615;28;20229;-80
2022/10/08 14:40:37;;;;;;;3.43;2.93;;;18.20;96.10;;;;;;10423109;28;20214;-80
2022/10/08 14:45:41;;;;;;;3.00;2.90;;;18.10;96.90;;;;;;10418696;28;20197;-80
2022/10/08 14:50:43;;;;;;;2.60;2.40;;;17.90;98.40;;;;;;10421610;28;20583;-79
2022/10/08 14:55:45;;;;;;;3.70;2.70;;;17.80;98.90;;;;;;10418515;28;20273;-80
2022/10/08 15:00:52;;;;;;;5.00;3.00;;;17.80;98.30;;;;;;10417017;28;20702;-81
2022/10/08 15:05:58;;;;;;;3.20;2.90;;;17.70;99.50;;;;;;10415233;28;20230;-80
2022/10/08 15:11:03;;;;;;;3.20;3.00;;;17.60;99.40;;;;;;10415907;28;20209;-80
2022/10/08 15:16:10;;;;;;;4.90;3.10;;;17.50;98.70;;;;;;10419784;28;20940;-80
2022/10/08 15:21:12;;;;;;;3.43;3.23;;;17.40;99.00;;;;;;10417061;28;20225;-80
2022/10/08 15:26:16;;;;;;;2.80;2.60;;;17.40;98.20;;;;;;10420512;28;20244;-80
2022/10/08 15:31:22;;;;;;;2.87;2.50;;;17.30;98.30;;;;;;10404388;28;20225;-80
2022/10/08 15:36:26;;;;;;;3.10;2.83;;;17.30;99.30;;;;;;10419696;28;20243;-79
2022/10/08 15:41:30;;;;;;;2.73;2.60;;;17.20;98.80;;;;;;10417572;28;20265;-81
2022/10/08 15:46:34;;;;;;;3.00;2.80;;;17.20;99.10;;;;;;10405123;28;20194;-80
2022/10/08 15:51:36;;;;;;;5.27;2.70;;;17.20;99.90;;;;;;10377100;28;20721;-80
2022/10/08 15:56:38;;;;;;;3.00;2.80;;;17.20;98.90;;;;;;10371035;28;20690;-80
2022/10/08 16:01:41;;;;;;;3.10;2.90;;;17.20;99.10;;;;;;10372089;28;20226;-80
2022/10/08 16:06:45;;;;;;;3.43;3.10;;;17.20;99.00;;;;;;10338048;28;20274;-80
2022/10/08 16:11:48;;;;;;;2.87;2.67;;;17.20;99.00;;;;;;10354764;28;20257;-81
2022/10/08 16:16:52;;;;;;;8.47;2.60;;;17.20;99.10;;;;;;10345235;28;20294;-80
2022/10/08 16:21:56;;;;;;;3.00;2.80;;;17.20;99.30;;;;;;10331578;28;20662;-80
2022/10/08 16:26:58;;;;;;;3.37;2.87;;;17.20;98.90;;;;;;10374762;28;20192;-80
2022/10/08 16:32:02;;;;;;;3.67;3.47;;;17.20;99.90;;;;;;10386895;28;20577;-80
2022/10/08 16:37:04;;;;;;;3.70;3.13;;;17.10;99.90;;;;;;10339029;28;20982;-80
2022/10/08 16:42:06;;;;;;;3.30;3.00;;;17.00;99.90;;;;;;10403541;28;20293;-80
2022/10/08 16:47:09;;;;;;;3.23;2.90;;;16.90;99.90;;;;;;10408324;28;20281;-80
2022/10/08 16:52:12;;;;;;;4.20;3.07;;;16.80;99.90;;;;;;10415624;28;20210;-81
2022/10/08 16:57:14;;;;;;;3.17;2.97;;;16.80;99.90;;;;;;10420035;28;20244;-81
2022/10/08 17:02:17;;;;;;;3.93;2.60;;;16.70;99.90;;;;;;10423213;28;20230;-81
2022/10/08 17:07:20;;;;;;;4.27;3.87;;;16.70;99.90;;;;;;10426389;28;20286;-81
2022/10/08 17:12:22;;;;;;;8.33;2.90;;;16.60;99.90;;;;;;10420463;28;20218;-80
2022/10/08 17:17:26;;;;;;;4.30;3.90;;;16.50;99.90;;;;;;10415015;28;20224;-80
2022/10/08 17:22:28;;;;;;;8.53;4.20;;;16.40;99.90;;;;;;10372075;28;21024;-81
2022/10/08 17:27:30;;;;;;;4.10;3.60;;;16.40;99.90;;;;;;10381887;28;20209;-80
2022/10/08 17:32:34;;;;;;;5.23;4.60;;;16.20;99.90;;;;;;10380484;28;20218;-80
2022/10/08 17:37:36;;;;;;;4.73;4.33;;;16.10;99.90;;;;;;10378727;28;20195;-80
2022/10/08 17:42:38;;;;;;;5.13;4.73;;;15.90;99.90;;;;;;10417850;28;20271;-80
2022/10/08 17:47:41;;;;;;;5.73;4.50;;;15.80;99.90;;;;;;10420655;28;20191;-80
2022/10/08 17:52:43;;;;;;;4.97;4.57;;;15.70;99.90;;;;;;10419375;28;20221;-80
2022/10/08 17:57:45;;;;;;;5.80;4.63;;;15.50;99.90;;;;;;10419286;28;20210;-80
2022/10/08 18:02:49;;;;;;;4.10;3.23;;;15.40;99.90;;;;;;10418797;28;20226;-80
2022/10/08 18:07:51;;;;;;;5.53;3.97;;;15.40;99.90;;;;;;10395220;28;20197;-80
2022/10/08 18:12:56;;;;;;;5.33;4.53;;;15.30;99.90;;;;;;10399680;28;20234;-80
2022/10/08 18:17:59;;;;;;;5.30;4.70;;;15.20;99.90;;;;;;10412348;28;20704;-80
2022/10/08 18:23:01;;;;;;;10.50;4.70;;;15.10;99.90;;;;;;10367255;28;20246;-80
2022/10/08 18:28:03;;;;;;;4.60;4.27;;;15.00;99.90;;;;;;10390032;28;20222;-80
2022/10/08 18:33:06;;;;;;;4.63;4.10;;;15.00;99.90;;;;;;10374720;28;20312;-80
2022/10/08 18:38:09;;;;;;;4.00;3.70;;;14.90;99.90;;;;;;10368811;28;20432;-80
2022/10/08 18:43:11;;;;;;;4.20;3.80;;;14.90;99.90;;;;;;10372698;28;20257;-80
2022/10/08 18:48:14;;;;;;;5.17;4.73;;;14.80;99.90;;;;;;10389884;28;20670;-80
2022/10/08 18:53:16;;;;;;;4.50;4.10;;;14.80;99.90;;;;;;10383718;28;20241;-80
2022/10/08 18:58:18;;;;;;;5.80;4.47;;;14.70;99.90;;;;;;10373819;28;20227;-80
2022/10/08 19:03:22;;;;;;;4.87;4.27;;;14.70;99.90;;;;;;10371510;28;20234;-80
2022/10/08 19:08:24;;;;;;;5.10;4.60;;;14.50;99.90;;;;;;10375779;28;20679;-80
2022/10/08 19:13:26;;;;;;;5.60;5.10;;;14.50;99.90;;;;;;10382673;28;20604;-80
2022/10/08 19:18:29;;;;;;;7.53;5.13;;;14.50;99.90;;;;;;10385372;28;20313;-80
2022/10/08 19:23:31;;;;;;;9.47;6.13;;;14.40;99.90;;;;;;10371932;28;20225;-80
2022/10/08 19:28:35;;;;;;;9.03;7.77;;;14.30;99.90;;;;;;10414593;28;20284;-80
2022/10/08 19:33:39;;;;;;;8.47;5.40;;;14.30;99.90;;;;;;10410018;28;20256;-80
2022/10/08 19:38:41;;;;;;;5.80;5.30;;;14.30;99.90;;;;;;10411458;28;20305;-80
2022/10/08 19:43:43;;;;;;;9.40;7.43;;;14.20;99.90;;;;;;10406990;28;20205;-81
2022/10/08 19:48:49;;;;;;;6.97;6.20;;;14.10;99.90;;;;;;10393363;28;20692;-79
2022/10/08 19:53:51;;;;;;;7.47;6.37;;;14.10;99.90;;;;;;10407537;28;20249;-79
2022/10/08 19:58:54;;;;;;;8.80;5.37;;;14.10;99.90;;;;;;10371623;28;20209;-80
2022/10/08 20:03:59;;;;;;;7.63;5.07;;;14.10;99.90;;;;;;10375780;28;20280;-80
2022/10/08 20:09:03;;;;;;;7.47;5.10;;;14.00;99.90;;;;;;10402426;28;20252;-80
2022/10/08 20:14:05;;;;;;;6.43;5.77;;;14.00;99.90;;;;;;10418442;28;20237;-80
2022/10/08 20:19:14;;;;;;;6.77;5.13;;;14.00;99.90;;;;;;10398712;28;20241;-79
2022/10/08 20:24:17;;;;;;;8.80;6.30;;;14.00;99.90;;;;;;10413176;28;20229;-80
2022/10/08 20:29:21;;;;;;;11.87;6.17;;;14.10;99.90;;;;;;10419249;28;20236;-79
2022/10/08 20:34:27;;;;;;;8.57;5.80;;;14.10;99.90;;;;;;10421573;28;20210;-80
2022/10/08 20:39:30;;;;;;;6.80;5.40;;;14.10;99.90;;;;;;10421670;28;20202;-80
2022/10/08 20:44:32;;;;;;;5.53;5.07;;;14.20;99.90;;;;;;10420657;28;20210;-80
2022/10/08 20:49:35;;;;;;;8.77;5.80;;;14.20;99.90;;;;;;10403643;28;20190;-80
2022/10/08 20:54:37;;;;;;;8.60;6.77;;;14.20;99.90;;;;;;10422717;28;20305;-79
2022/10/08 20:59:39;;;;;;;7.20;5.20;;;14.30;99.90;;;;;;10419182;28;20697;-79
2022/10/08 21:04:43;;;;;;;6.93;6.17;;;14.40;99.90;;;;;;10419893;28;20225;-79
2022/10/08 21:09:45;;;;;;;6.50;5.80;;;14.40;99.90;;;;;;10419437;28;20261;-79
2022/10/08 21:14:47;;;;;;;6.97;6.10;;;14.40;99.90;;;;;;10403123;28;20646;-80
2022/10/08 21:19:50;;;;;;;6.43;5.90;;;14.40;99.90;;;;;;10419290;28;20218;-80
2022/10/08 21:24:52;;;;;;;7.70;6.40;;;14.30;99.90;;;;;;10388027;28;20638;-79
2022/10/08 21:29:54;;;;;;;5.97;5.40;;;14.30;99.90;;;;;;10378856;28;20207;-80
2022/10/08 21:34:58;;;;;;;7.40;5.80;;;14.20;99.90;;;;;;10380006;28;20242;-79
2022/10/08 21:40:00;;;;;;;6.50;5.90;;;14.20;99.90;;;;;;10378355;28;20222;-80
2022/10/08 21:45:02;;;;;;;11.17;6.87;;;14.10;99.90;;;;;;10401098;28;20221;-79
2022/10/08 21:50:07;;;;;;;6.47;5.87;;;14.10;99.90;;;;;;10403090;28;20194;-80
2022/10/08 21:55:09;;;;;;;6.57;5.10;;;14.00;99.90;;;;;;10417893;28;20297;-79
2022/10/08 22:00:12;;;;;;;10.17;5.43;;;13.90;99.90;;;;;;10402347;28;20232;-79
2022/10/08 22:05:19;;;;;;;6.70;5.57;;;13.80;99.90;;;;;;10423527;28;20284;-80
2022/10/08 22:10:21;;;;;;;7.00;4.87;;;13.70;99.90;;;;;;10424181;28;20210;-80
2022/10/08 22:15:23;;;;;;;8.00;5.70;;;13.70;99.90;;;;;;10419758;28;20208;-80
2022/10/08 22:20:26;;;;;;;11.50;7.20;;;13.60;99.90;;;;;;10407349;28;20280;-80
2022/10/08 22:25:29;;;;;;;6.60;6.00;;;13.50;99.90;;;;;;10422343;28;20197;-80
2022/10/08 22:30:34;;;;;;;6.93;6.20;;;13.50;99.90;;;;;;10389630;28;20290;-80
2022/10/08 22:35:38;;;;;;;11.07;5.73;;;13.40;99.90;;;;;;10361574;28;20199;-80
2022/10/08 22:40:40;;;;;;;5.40;4.67;;;13.40;99.90;;;;;;10354434;28;20221;-80
2022/10/08 22:45:42;;;;;;;7.90;5.63;;;13.40;99.90;;;;;;10373381;28;20222;-80
2022/10/08 22:50:46;;;;;;;5.57;5.07;;;13.30;99.90;;;;;;10368550;28;20298;-79
2022/10/08 22:55:48;;;;;;;8.73;5.67;;;13.30;99.90;;;;;;10358094;28;20194;-80
2022/10/08 23:00:57;;;;;;;6.03;4.87;;;13.20;99.90;;;;;;10358835;28;20230;-80
2022/10/08 23:06:03;;;;;;;5.53;4.73;;;13.10;99.90;;;;;;10356976;28;20203;-80
2022/10/08 23:11:06;;;;;;;7.00;5.43;;;13.10;99.90;;;;;;10377230;28;20616;-80
2022/10/08 23:16:10;;;;;;;5.70;5.20;;;13.10;99.90;;;;;;10401821;28;20197;-80
2022/10/08 23:21:16;;;;;;;4.80;4.40;;;13.00;99.90;;;;;;10415279;28;20302;-80
2022/10/08 23:26:18;;;;;;;4.80;4.40;;;13.00;99.90;;;;;;10398655;28;20196;-80
2022/10/08 23:31:22;;;;;;;8.20;4.77;;;12.90;99.90;;;;;;10407898;28;20596;-80
2022/10/08 23:36:28;;;;;;;4.77;4.37;;;12.90;99.90;;;;;;10394124;28;20202;-80
2022/10/08 23:41:30;;;;;;;5.07;4.13;;;12.90;99.90;;;;;;10415900;28;20232;-79
2022/10/08 23:46:32;;;;;;;5.23;4.30;;;12.80;99.90;;;;;;10401002;28;20617;-79
2022/10/08 23:51:35;;;;;;;5.00;3.83;;;12.80;99.90;;;;;;10416145;28;20217;-80
2022/10/08 23:56:37;;;;;;;5.63;4.07;;;12.80;99.90;;;;;;10400513;28;20550;-80
